sensor_id;sensor_type;location;lat;lon;timestamp;pressure;altitude;pressure_sealevel;temperature;humidity
77587;BME280;66744;49.716;17.158;2023-06-14T00:01:57;98933.75;;;13.11;64.36
77587;BME280;66744;49.716;17.158;2023-06-14T00:05:27;98934.41;;;13.15;63.90
77587;BME280;66744;49.716;17.158;2023-06-14T00:08:31;98940.59;;;13.07;64.26
77587;BME280;66744;49.716;17.158;2023-06-14T00:11:42;98946.88;;;13.07;63.20
77587;BME280;66744;49.716;17.158;2023-06-14T00:14:54;98932.13;;;13.01;64.87
77587;BME280;66744;49.716;17.158;2023-06-14T00:18:00;98929.69;;;12.94;63.67
77587;BME280;66744;49.716;17.158;2023-06-14T00:21:13;98925.19;;;12.88;63.71
77587;BME280;66744;49.716;17.158;2023-06-14T00:24:51;98929.63;;;12.85;64.24
77587;BME280;66744;49.716;17.158;2023-06-14T00:27:57;98935.47;;;12.87;63.35
77587;BME280;66744;49.716;17.158;2023-06-14T00:31:01;98931.94;;;12.87;65.08
77587;BME280;66744;49.716;17.158;2023-06-14T00:34:07;98935.59;;;12.83;65.56
77587;BME280;66744;49.716;17.158;2023-06-14T00:37:16;98945.78;;;12.74;65.10
77587;BME280;66744;49.716;17.158;2023-06-14T00:40:21;98931.53;;;12.66;65.08
77587;BME280;66744;49.716;17.158;2023-06-14T00:43:25;98936.25;;;12.66;65.52
77587;BME280;66744;49.716;17.158;2023-06-14T00:46:29;98933.06;;;12.67;66.07
77587;BME280;66744;49.716;17.158;2023-06-14T00:49:34;98937.16;;;12.63;65.54
77587;BME280;66744;49.716;17.158;2023-06-14T00:52:39;98935.13;;;12.54;65.18
77587;BME280;66744;49.716;17.158;2023-06-14T00:55:47;98940.81;;;12.60;66.36
77587;BME280;66744;49.716;17.158;2023-06-14T00:58:57;98929.75;;;12.51;65.90
77587;BME280;66744;49.716;17.158;2023-06-14T01:02:04;98927.31;;;12.53;65.91
77587;BME280;66744;49.716;17.158;2023-06-14T01:05:12;98934.34;;;12.54;66.90
77587;BME280;66744;49.716;17.158;2023-06-14T01:12:04;98929.31;;;12.52;66.33
77587;BME280;66744;49.716;17.158;2023-06-14T01:15:13;98928.34;;;12.46;66.34
77587;BME280;66744;49.716;17.158;2023-06-14T01:18:23;98934.28;;;12.45;66.04
77587;BME280;66744;49.716;17.158;2023-06-14T01:21:27;98933.78;;;12.37;65.51
77587;BME280;66744;49.716;17.158;2023-06-14T01:24:32;98934.22;;;12.36;65.89
77587;BME280;66744;49.716;17.158;2023-06-14T01:27:36;98925.66;;;12.34;65.67
77587;BME280;66744;49.716;17.158;2023-06-14T01:30:44;98925.97;;;12.36;67.58
77587;BME280;66744;49.716;17.158;2023-06-14T01:34:21;98937.22;;;12.50;65.86
77587;BME280;66744;49.716;17.158;2023-06-14T01:37:29;98931.41;;;12.48;66.97
77587;BME280;66744;49.716;17.158;2023-06-14T01:44:41;98925.00;;;12.51;65.77
77587;BME280;66744;49.716;17.158;2023-06-14T01:48:55;98933.59;;;12.53;67.05
77587;BME280;66744;49.716;17.158;2023-06-14T01:52:23;98944.16;;;12.55;67.92
77587;BME280;66744;49.716;17.158;2023-06-14T01:55:40;98945.31;;;12.45;67.62
77587;BME280;66744;49.716;17.158;2023-06-14T01:59:34;98947.44;;;12.41;67.03
77587;BME280;66744;49.716;17.158;2023-06-14T02:02:39;98948.00;;;12.36;67.99
77587;BME280;66744;49.716;17.158;2023-06-14T02:05:52;98948.47;;;12.34;68.12
77587;BME280;66744;49.716;17.158;2023-06-14T02:09:00;98940.50;;;12.36;67.49
77587;BME280;66744;49.716;17.158;2023-06-14T02:12:53;98944.34;;;12.39;67.12
77587;BME280;66744;49.716;17.158;2023-06-14T02:16:21;98943.03;;;12.43;66.47
77587;BME280;66744;49.716;17.158;2023-06-14T02:19:42;98941.34;;;12.46;66.44
77587;BME280;66744;49.716;17.158;2023-06-14T02:22:49;98943.22;;;12.49;66.92
77587;BME280;66744;49.716;17.158;2023-06-14T02:26:18;98942.91;;;12.47;67.66
77587;BME280;66744;49.716;17.158;2023-06-14T02:29:52;98941.16;;;12.40;66.50
77587;BME280;66744;49.716;17.158;2023-06-14T02:33:25;98949.44;;;12.40;66.62
77587;BME280;66744;49.716;17.158;2023-06-14T02:36:58;98946.88;;;12.46;66.38
77587;BME280;66744;49.716;17.158;2023-06-14T02:40:05;98935.06;;;12.45;66.79
77587;BME280;66744;49.716;17.158;2023-06-14T02:43:23;98932.63;;;12.47;66.27
77587;BME280;66744;49.716;17.158;2023-06-14T02:46:30;98939.03;;;12.44;67.74
77587;BME280;66744;49.716;17.158;2023-06-14T02:49:54;98946.56;;;12.44;66.07
77587;BME280;66744;49.716;17.158;2023-06-14T02:57:43;98932.31;;;12.23;67.98
77587;BME280;66744;49.716;17.158;2023-06-14T03:04:51;98931.88;;;12.25;67.08
77587;BME280;66744;49.716;17.158;2023-06-14T03:08:45;98924.50;;;12.22;67.09
77587;BME280;66744;49.716;17.158;2023-06-14T03:13:35;98929.25;;;12.21;66.25
77587;BME280;66744;49.716;17.158;2023-06-14T03:17:36;98933.22;;;12.20;66.39
77587;BME280;66744;49.716;17.158;2023-06-14T03:24:53;98933.09;;;12.24;66.84
77587;BME280;66744;49.716;17.158;2023-06-14T03:28:41;98939.56;;;12.30;67.44
77587;BME280;66744;49.716;17.158;2023-06-14T03:32:00;98943.16;;;12.40;67.97
77587;BME280;66744;49.716;17.158;2023-06-14T03:35:14;98941.94;;;12.41;66.97
77587;BME280;66744;49.716;17.158;2023-06-14T03:38:31;98945.66;;;12.47;67.28
77587;BME280;66744;49.716;17.158;2023-06-14T03:41:40;98956.75;;;12.56;66.95
77587;BME280;66744;49.716;17.158;2023-06-14T03:44:50;98953.56;;;12.66;65.78
77587;BME280;66744;49.716;17.158;2023-06-14T03:48:00;98960.69;;;12.76;66.12
77587;BME280;66744;49.716;17.158;2023-06-14T03:51:09;98963.28;;;12.80;66.41
77587;BME280;66744;49.716;17.158;2023-06-14T03:54:17;98958.53;;;12.80;66.71
77587;BME280;66744;49.716;17.158;2023-06-14T03:57:22;98964.25;;;12.86;66.42
77587;BME280;66744;49.716;17.158;2023-06-14T04:00:28;98967.34;;;12.88;67.01
77587;BME280;66744;49.716;17.158;2023-06-14T04:03:30;98973.88;;;12.81;66.77
77587;BME280;66744;49.716;17.158;2023-06-14T04:06:32;98976.16;;;12.83;67.65
77587;BME280;66744;49.716;17.158;2023-06-14T04:09:34;98973.78;;;12.94;67.39
77587;BME280;66744;49.716;17.158;2023-06-14T04:13:16;98990.22;;;13.07;67.47
77587;BME280;66744;49.716;17.158;2023-06-14T04:16:22;98986.53;;;13.01;68.14
77587;BME280;66744;49.716;17.158;2023-06-14T04:19:37;98985.84;;;13.09;66.86
77587;BME280;66744;49.716;17.158;2023-06-14T04:22:40;98982.66;;;13.20;66.72
77587;BME280;66744;49.716;17.158;2023-06-14T04:25:42;98978.56;;;13.33;66.46
77587;BME280;66744;49.716;17.158;2023-06-14T04:28:46;98971.06;;;13.34;66.04
77587;BME280;66744;49.716;17.158;2023-06-14T04:31:48;98974.47;;;13.38;65.29
77587;BME280;66744;49.716;17.158;2023-06-14T04:34:54;98976.47;;;13.47;65.31
77587;BME280;66744;49.716;17.158;2023-06-14T04:38:15;98970.38;;;13.61;65.40
77587;BME280;66744;49.716;17.158;2023-06-14T04:41:33;98973.47;;;13.72;65.85
77587;BME280;66744;49.716;17.158;2023-06-14T04:44:36;98969.81;;;13.84;64.91
77587;BME280;66744;49.716;17.158;2023-06-14T04:47:41;98976.88;;;13.94;65.20
77587;BME280;66744;49.716;17.158;2023-06-14T04:50:46;98984.72;;;14.05;65.17
77587;BME280;66744;49.716;17.158;2023-06-14T04:53:50;98987.47;;;14.14;65.04
77587;BME280;66744;49.716;17.158;2023-06-14T04:56:53;98991.03;;;14.23;64.49
77587;BME280;66744;49.716;17.158;2023-06-14T05:00:03;98989.94;;;14.30;64.39
77587;BME280;66744;49.716;17.158;2023-06-14T05:03:14;98988.72;;;14.31;63.91
77587;BME280;66744;49.716;17.158;2023-06-14T05:06:20;98997.78;;;14.40;63.95
77587;BME280;66744;49.716;17.158;2023-06-14T05:09:23;99004.72;;;14.54;63.94
77587;BME280;66744;49.716;17.158;2023-06-14T05:12:25;99002.72;;;14.64;63.66
77587;BME280;66744;49.716;17.158;2023-06-14T05:15:27;99008.06;;;14.67;64.49
77587;BME280;66744;49.716;17.158;2023-06-14T05:18:30;98998.25;;;14.75;63.90
77587;BME280;66744;49.716;17.158;2023-06-14T05:21:31;98994.06;;;14.89;63.86
77587;BME280;66744;49.716;17.158;2023-06-14T05:24:44;98982.97;;;14.98;64.02
77587;BME280;66744;49.716;17.158;2023-06-14T05:27:58;98995.97;;;15.16;62.56
77587;BME280;66744;49.716;17.158;2023-06-14T05:30:59;98988.84;;;15.24;63.43
77587;BME280;66744;49.716;17.158;2023-06-14T05:34:01;98995.66;;;15.23;63.54
77587;BME280;66744;49.716;17.158;2023-06-14T05:37:06;98991.94;;;15.26;64.21
77587;BME280;66744;49.716;17.158;2023-06-14T05:40:10;98992.16;;;15.46;63.37
77587;BME280;66744;49.716;17.158;2023-06-14T05:43:14;99002.34;;;15.73;61.89
77587;BME280;66744;49.716;17.158;2023-06-14T05:46:23;98995.72;;;16.03;61.31
77587;BME280;66744;49.716;17.158;2023-06-14T05:49:42;99017.31;;;16.37;59.34
77587;BME280;66744;49.716;17.158;2023-06-14T05:52:45;99011.28;;;16.62;58.35
77587;BME280;66744;49.716;17.158;2023-06-14T05:55:50;99019.91;;;16.94;57.30
77587;BME280;66744;49.716;17.158;2023-06-14T05:58:54;99019.03;;;17.17;57.43
77587;BME280;66744;49.716;17.158;2023-06-14T06:01:56;99013.56;;;17.22;56.04
77587;BME280;66744;49.716;17.158;2023-06-14T06:05:03;99020.06;;;17.49;56.59
77587;BME280;66744;49.716;17.158;2023-06-14T06:08:05;99020.25;;;17.60;54.50
77587;BME280;66744;49.716;17.158;2023-06-14T06:11:07;99017.06;;;17.67;53.43
77587;BME280;66744;49.716;17.158;2023-06-14T06:14:10;99024.59;;;17.81;52.25
77587;BME280;66744;49.716;17.158;2023-06-14T06:17:12;99021.47;;;17.94;52.51
77587;BME280;66744;49.716;17.158;2023-06-14T06:20:14;99032.47;;;18.03;51.77
77587;BME280;66744;49.716;17.158;2023-06-14T06:23:15;99035.41;;;18.14;51.76
77587;BME280;66744;49.716;17.158;2023-06-14T06:26:22;99040.69;;;18.32;50.91
77587;BME280;66744;49.716;17.158;2023-06-14T06:29:24;99029.91;;;18.40;50.20
77587;BME280;66744;49.716;17.158;2023-06-14T06:32:26;99038.94;;;18.35;51.16
77587;BME280;66744;49.716;17.158;2023-06-14T06:35:27;99040.41;;;18.50;50.48
77587;BME280;66744;49.716;17.158;2023-06-14T06:38:30;99046.94;;;18.67;50.04
77587;BME280;66744;49.716;17.158;2023-06-14T06:41:33;99053.09;;;18.77;49.21
77587;BME280;66744;49.716;17.158;2023-06-14T06:44:36;99047.00;;;18.73;49.43
77587;BME280;66744;49.716;17.158;2023-06-14T06:47:37;99051.91;;;18.83;48.23
77587;BME280;66744;49.716;17.158;2023-06-14T06:50:39;99052.25;;;18.91;48.10
77587;BME280;66744;49.716;17.158;2023-06-14T06:53:42;99049.53;;;18.97;48.09
77587;BME280;66744;49.716;17.158;2023-06-14T06:56:45;99048.09;;;19.07;48.12
77587;BME280;66744;49.716;17.158;2023-06-14T06:59:57;99060.09;;;19.18;48.20
77587;BME280;66744;49.716;17.158;2023-06-14T07:02:59;99053.13;;;19.03;47.60
77587;BME280;66744;49.716;17.158;2023-06-14T07:06:00;99059.56;;;19.14;47.72
77587;BME280;66744;49.716;17.158;2023-06-14T07:09:04;99059.09;;;19.21;46.82
77587;BME280;66744;49.716;17.158;2023-06-14T07:12:16;99066.00;;;19.26;46.86
77587;BME280;66744;49.716;17.158;2023-06-14T07:15:17;99053.38;;;19.30;47.10
77587;BME280;66744;49.716;17.158;2023-06-14T07:18:18;99057.13;;;19.27;44.70
77587;BME280;66744;49.716;17.158;2023-06-14T07:21:20;99060.03;;;19.38;44.65
77587;BME280;66744;49.716;17.158;2023-06-14T07:24:22;99073.50;;;19.40;44.54
77587;BME280;66744;49.716;17.158;2023-06-14T07:27:23;99065.03;;;19.03;44.04
77587;BME280;66744;49.716;17.158;2023-06-14T07:30:27;99075.00;;;18.90;44.45
77587;BME280;66744;49.716;17.158;2023-06-14T07:33:31;99071.44;;;18.63;45.21
77587;BME280;66744;49.716;17.158;2023-06-14T07:36:35;99065.53;;;18.56;45.87
77587;BME280;66744;49.716;17.158;2023-06-14T07:39:37;99074.41;;;18.40;45.82
77587;BME280;66744;49.716;17.158;2023-06-14T07:42:39;99071.97;;;18.27;46.02
77587;BME280;66744;49.716;17.158;2023-06-14T07:45:41;99071.34;;;18.38;47.01
77587;BME280;66744;49.716;17.158;2023-06-14T07:48:48;99074.97;;;18.44;45.87
77587;BME280;66744;49.716;17.158;2023-06-14T07:51:50;99069.19;;;18.27;46.03
77587;BME280;66744;49.716;17.158;2023-06-14T07:54:52;99087.81;;;18.21;46.59
77587;BME280;66744;49.716;17.158;2023-06-14T07:57:53;99079.06;;;18.28;46.33
77587;BME280;66744;49.716;17.158;2023-06-14T08:00:55;99078.56;;;18.29;45.29
77587;BME280;66744;49.716;17.158;2023-06-14T08:04:01;99085.22;;;18.17;46.32
77587;BME280;66744;49.716;17.158;2023-06-14T08:07:06;99080.59;;;18.29;45.84
77587;BME280;66744;49.716;17.158;2023-06-14T08:10:10;99071.63;;;18.40;45.74
77587;BME280;66744;49.716;17.158;2023-06-14T08:13:12;99074.63;;;18.36;47.03
77587;BME280;66744;49.716;17.158;2023-06-14T08:16:14;99074.88;;;18.38;46.80
77587;BME280;66744;49.716;17.158;2023-06-14T08:19:18;99083.75;;;18.57;47.18
77587;BME280;66744;49.716;17.158;2023-06-14T08:22:21;99080.34;;;18.67;45.37
77587;BME280;66744;49.716;17.158;2023-06-14T08:25:23;99083.31;;;18.84;44.16
77587;BME280;66744;49.716;17.158;2023-06-14T08:28:25;99075.16;;;18.80;45.19
77587;BME280;66744;49.716;17.158;2023-06-14T08:31:27;99091.72;;;18.90;45.18
77587;BME280;66744;49.716;17.158;2023-06-14T08:34:38;99088.94;;;18.90;43.58
77587;BME280;66744;49.716;17.158;2023-06-14T08:40:57;99094.06;;;18.97;44.17
77587;BME280;66744;49.716;17.158;2023-06-14T08:44:12;99085.78;;;19.02;43.87
77587;BME280;66744;49.716;17.158;2023-06-14T08:47:15;99084.44;;;18.98;44.02
77587;BME280;66744;49.716;17.158;2023-06-14T08:50:21;99082.84;;;19.11;43.85
77587;BME280;66744;49.716;17.158;2023-06-14T08:53:23;99075.56;;;19.19;43.97
77587;BME280;66744;49.716;17.158;2023-06-14T08:56:27;99076.59;;;18.96;44.23
77587;BME280;66744;49.716;17.158;2023-06-14T08:59:29;99073.91;;;18.81;46.34
77587;BME280;66744;49.716;17.158;2023-06-14T09:02:32;99071.28;;;18.72;45.53
77587;BME280;66744;49.716;17.158;2023-06-14T09:05:38;99083.38;;;18.90;46.01
77587;BME280;66744;49.716;17.158;2023-06-14T09:08:44;99073.72;;;19.11;44.18
77587;BME280;66744;49.716;17.158;2023-06-14T09:11:46;99074.34;;;19.26;44.27
77587;BME280;66744;49.716;17.158;2023-06-14T09:14:56;99075.72;;;19.36;43.98
77587;BME280;66744;49.716;17.158;2023-06-14T09:18:04;99077.91;;;19.26;43.75
77587;BME280;66744;49.716;17.158;2023-06-14T09:21:15;99082.72;;;19.26;44.29
77587;BME280;66744;49.716;17.158;2023-06-14T09:24:17;99097.84;;;19.19;44.38
77587;BME280;66744;49.716;17.158;2023-06-14T09:27:18;99085.25;;;19.24;44.21
77587;BME280;66744;49.716;17.158;2023-06-14T09:30:20;99089.22;;;19.43;43.72
77587;BME280;66744;49.716;17.158;2023-06-14T09:33:25;99082.81;;;19.63;43.94
77587;BME280;66744;49.716;17.158;2023-06-14T09:36:27;99086.66;;;19.71;43.74
77587;BME280;66744;49.716;17.158;2023-06-14T09:39:28;99082.50;;;19.92;43.52
77587;BME280;66744;49.716;17.158;2023-06-14T09:42:32;99080.72;;;19.89;41.33
77587;BME280;66744;49.716;17.158;2023-06-14T09:45:38;99079.72;;;19.92;41.89
77587;BME280;66744;49.716;17.158;2023-06-14T09:49:02;99072.16;;;19.98;42.49
77587;BME280;66744;49.716;17.158;2023-06-14T09:52:04;99063.50;;;19.96;42.39
77587;BME280;66744;49.716;17.158;2023-06-14T09:55:13;99072.88;;;19.93;41.67
77587;BME280;66744;49.716;17.158;2023-06-14T09:58:16;99065.22;;;19.82;42.82
77587;BME280;66744;49.716;17.158;2023-06-14T10:01:20;99065.69;;;19.81;40.79
77587;BME280;66744;49.716;17.158;2023-06-14T10:04:22;99052.06;;;19.88;40.21
77587;BME280;66744;49.716;17.158;2023-06-14T10:07:25;99055.97;;;20.08;38.47
77587;BME280;66744;49.716;17.158;2023-06-14T10:10:27;99065.16;;;20.19;38.41
77587;BME280;66744;49.716;17.158;2023-06-14T10:13:32;99052.25;;;20.22;39.25
77587;BME280;66744;49.716;17.158;2023-06-14T10:16:52;99052.34;;;20.38;39.35
77587;BME280;66744;49.716;17.158;2023-06-14T10:23:23;99056.56;;;20.23;37.83
77587;BME280;66744;49.716;17.158;2023-06-14T10:26:57;99052.59;;;20.35;37.61
77587;BME280;66744;49.716;17.158;2023-06-14T10:33:06;99049.09;;;20.51;38.71
77587;BME280;66744;49.716;17.158;2023-06-14T10:36:28;99057.25;;;20.55;39.29
77587;BME280;66744;49.716;17.158;2023-06-14T10:39:40;99056.28;;;20.74;38.78
77587;BME280;66744;49.716;17.158;2023-06-14T10:42:55;99049.44;;;20.75;38.01
77587;BME280;66744;49.716;17.158;2023-06-14T10:46:16;99056.28;;;20.74;38.11
77587;BME280;66744;49.716;17.158;2023-06-14T10:49:38;99057.28;;;20.71;38.04
77587;BME280;66744;49.716;17.158;2023-06-14T10:57:08;99041.94;;;20.39;39.73
77587;BME280;66744;49.716;17.158;2023-06-14T11:00:10;99039.59;;;20.26;42.61
77587;BME280;66744;49.716;17.158;2023-06-14T11:03:43;99043.44;;;20.34;41.34
77587;BME280;66744;49.716;17.158;2023-06-14T11:07:08;99026.19;;;20.30;40.00
77587;BME280;66744;49.716;17.158;2023-06-14T11:10:28;99039.94;;;20.39;41.13
77587;BME280;66744;49.716;17.158;2023-06-14T11:13:59;99034.13;;;20.48;38.98
77587;BME280;66744;49.716;17.158;2023-06-14T11:17:08;99030.59;;;20.65;39.22
77587;BME280;66744;49.716;17.158;2023-06-14T11:20:16;99038.44;;;20.55;39.50
77587;BME280;66744;49.716;17.158;2023-06-14T11:23:21;99038.88;;;20.31;39.98
77587;BME280;66744;49.716;17.158;2023-06-14T11:26:29;99029.88;;;20.11;40.27
77587;BME280;66744;49.716;17.158;2023-06-14T11:29:30;99031.06;;;19.98;42.27
77587;BME280;66744;49.716;17.158;2023-06-14T11:32:33;99039.19;;;19.96;42.75
77587;BME280;66744;49.716;17.158;2023-06-14T11:35:38;99029.78;;;19.94;42.62
77587;BME280;66744;49.716;17.158;2023-06-14T11:38:40;99020.25;;;20.12;41.89
77587;BME280;66744;49.716;17.158;2023-06-14T11:41:43;99021.88;;;20.29;39.96
77587;BME280;66744;49.716;17.158;2023-06-14T11:44:50;99021.19;;;20.51;37.43
77587;BME280;66744;49.716;17.158;2023-06-14T11:47:58;99018.44;;;20.73;37.47
77587;BME280;66744;49.716;17.158;2023-06-14T11:51:03;99010.63;;;20.99;38.37
77587;BME280;66744;49.716;17.158;2023-06-14T11:54:06;99009.59;;;20.91;37.25
77587;BME280;66744;49.716;17.158;2023-06-14T11:57:10;99009.84;;;20.88;38.15
77587;BME280;66744;49.716;17.158;2023-06-14T12:00:12;99003.56;;;21.10;38.56
77587;BME280;66744;49.716;17.158;2023-06-14T12:03:16;99000.50;;;21.30;39.04
77587;BME280;66744;49.716;17.158;2023-06-14T12:06:34;99005.59;;;21.37;38.27
77587;BME280;66744;49.716;17.158;2023-06-14T12:09:41;99003.28;;;21.35;38.77
77587;BME280;66744;49.716;17.158;2023-06-14T12:12:46;99002.53;;;21.18;38.33
77587;BME280;66744;49.716;17.158;2023-06-14T12:15:54;99012.69;;;21.16;38.40
77587;BME280;66744;49.716;17.158;2023-06-14T12:19:00;99002.78;;;21.09;37.28
77587;BME280;66744;49.716;17.158;2023-06-14T12:22:04;99004.56;;;21.18;38.47
77587;BME280;66744;49.716;17.158;2023-06-14T12:25:06;99005.09;;;21.22;39.09
77587;BME280;66744;49.716;17.158;2023-06-14T12:28:12;99004.78;;;21.03;37.88
77587;BME280;66744;49.716;17.158;2023-06-14T12:31:16;99007.59;;;21.09;38.70
77587;BME280;66744;49.716;17.158;2023-06-14T12:34:48;99010.16;;;21.34;38.37
77587;BME280;66744;49.716;17.158;2023-06-14T12:37:52;99006.59;;;21.45;38.01
77587;BME280;66744;49.716;17.158;2023-06-14T12:41:49;99006.09;;;21.46;37.85
77587;BME280;66744;49.716;17.158;2023-06-14T12:44:44;98993.63;;;21.47;38.49
77587;BME280;66744;49.716;17.158;2023-06-14T12:47:55;98990.59;;;21.45;37.05
77587;BME280;66744;49.716;17.158;2023-06-14T12:51:15;98999.72;;;21.51;38.01
77587;BME280;66744;49.716;17.158;2023-06-14T12:54:16;98995.66;;;21.64;37.92
77587;BME280;66744;49.716;17.158;2023-06-14T12:57:18;99000.44;;;21.85;37.43
77587;BME280;66744;49.716;17.158;2023-06-14T13:00:20;98990.28;;;21.88;38.33
77587;BME280;66744;49.716;17.158;2023-06-14T13:03:23;98989.50;;;21.93;37.60
77587;BME280;66744;49.716;17.158;2023-06-14T13:06:24;98988.22;;;21.83;37.11
77587;BME280;66744;49.716;17.158;2023-06-14T13:12:27;98979.91;;;21.49;38.32
77587;BME280;66744;49.716;17.158;2023-06-14T13:15:29;98988.28;;;21.55;38.65
77587;BME280;66744;49.716;17.158;2023-06-14T13:18:34;98989.78;;;21.56;37.96
77587;BME280;66744;49.716;17.158;2023-06-14T13:21:35;98989.53;;;21.59;38.79
77587;BME280;66744;49.716;17.158;2023-06-14T13:24:36;98989.28;;;21.63;38.21
77587;BME280;66744;49.716;17.158;2023-06-14T13:27:38;98979.63;;;21.70;37.73
77587;BME280;66744;49.716;17.158;2023-06-14T13:30:43;98987.22;;;21.75;37.89
77587;BME280;66744;49.716;17.158;2023-06-14T13:33:44;98979.63;;;21.70;38.13
77587;BME280;66744;49.716;17.158;2023-06-14T13:36:46;98973.53;;;21.54;38.71
77587;BME280;66744;49.716;17.158;2023-06-14T13:39:48;98978.13;;;21.46;39.56
77587;BME280;66744;49.716;17.158;2023-06-14T13:42:49;98968.44;;;21.53;40.07
77587;BME280;66744;49.716;17.158;2023-06-14T13:45:51;98970.25;;;21.45;38.31
77587;BME280;66744;49.716;17.158;2023-06-14T13:49:18;98976.38;;;21.43;41.21
77587;BME280;66744;49.716;17.158;2023-06-14T13:52:21;98976.63;;;21.34;41.50
77587;BME280;66744;49.716;17.158;2023-06-14T13:55:22;98966.19;;;21.29;40.19
77587;BME280;66744;49.716;17.158;2023-06-14T13:58:26;98974.06;;;21.42;39.59
77587;BME280;66744;49.716;17.158;2023-06-14T14:01:28;98965.94;;;21.38;40.73
77587;BME280;66744;49.716;17.158;2023-06-14T14:04:32;98972.03;;;21.48;40.16
77587;BME280;66744;49.716;17.158;2023-06-14T14:07:33;98972.53;;;21.57;38.98
77587;BME280;66744;49.716;17.158;2023-06-14T14:10:35;98971.00;;;21.51;38.43
77587;BME280;66744;49.716;17.158;2023-06-14T14:13:39;98967.47;;;21.39;36.98
77587;BME280;66744;49.716;17.158;2023-06-14T14:16:47;98970.50;;;21.52;37.86
77587;BME280;66744;49.716;17.158;2023-06-14T14:19:51;98972.50;;;21.69;37.27
77587;BME280;66744;49.716;17.158;2023-06-14T14:22:53;98967.66;;;21.69;35.95
77587;BME280;66744;49.716;17.158;2023-06-14T14:26:00;98963.31;;;21.74;37.35
77587;BME280;66744;49.716;17.158;2023-06-14T14:29:05;98970.69;;;21.77;36.83
77587;BME280;66744;49.716;17.158;2023-06-14T14:35:14;98967.41;;;21.73;36.89
77587;BME280;66744;49.716;17.158;2023-06-14T14:38:26;98965.88;;;21.72;36.16
77587;BME280;66744;49.716;17.158;2023-06-14T14:41:28;98963.59;;;21.70;36.62
77587;BME280;66744;49.716;17.158;2023-06-14T14:44:33;98965.84;;;21.83;36.59
77587;BME280;66744;49.716;17.158;2023-06-14T14:47:47;98955.16;;;21.92;36.96
77587;BME280;66744;49.716;17.158;2023-06-14T14:50:55;98970.88;;;22.06;37.04
77587;BME280;66744;49.716;17.158;2023-06-14T14:53:56;98968.09;;;22.01;36.71
77587;BME280;66744;49.716;17.158;2023-06-14T14:56:58;98968.84;;;22.07;36.29
77587;BME280;66744;49.716;17.158;2023-06-14T15:00:05;98969.88;;;21.98;37.77
77587;BME280;66744;49.716;17.158;2023-06-14T15:03:07;98971.16;;;21.86;38.21
77587;BME280;66744;49.716;17.158;2023-06-14T15:06:10;98974.78;;;21.59;37.48
77587;BME280;66744;49.716;17.158;2023-06-14T15:09:14;98976.34;;;21.49;38.59
77587;BME280;66744;49.716;17.158;2023-06-14T15:12:28;98973.03;;;21.50;38.96
77587;BME280;66744;49.716;17.158;2023-06-14T15:15:36;98970.22;;;21.50;37.58
77587;BME280;66744;49.716;17.158;2023-06-14T15:18:43;98974.31;;;21.49;38.66
77587;BME280;66744;49.716;17.158;2023-06-14T15:21:47;98974.56;;;21.46;39.96
77587;BME280;66744;49.716;17.158;2023-06-14T15:24:49;98971.53;;;21.33;38.69
77587;BME280;66744;49.716;17.158;2023-06-14T15:27:58;98978.13;;;21.35;38.98
77587;BME280;66744;49.716;17.158;2023-06-14T15:31:05;98969.00;;;21.24;39.42
77587;BME280;66744;49.716;17.158;2023-06-14T15:34:28;98975.09;;;21.28;41.42
77587;BME280;66744;49.716;17.158;2023-06-14T15:37:43;98971.03;;;21.18;42.22
77587;BME280;66744;49.716;17.158;2023-06-14T15:40:45;98966.72;;;21.17;42.33
77587;BME280;66744;49.716;17.158;2023-06-14T15:43:47;98980.44;;;21.15;41.80
77587;BME280;66744;49.716;17.158;2023-06-14T15:46:51;98977.38;;;21.07;42.45
77587;BME280;66744;49.716;17.158;2023-06-14T15:49:58;98970.78;;;21.10;42.21
77587;BME280;66744;49.716;17.158;2023-06-14T15:52:59;98981.72;;;21.08;41.08
77587;BME280;66744;49.716;17.158;2023-06-14T15:56:24;98971.78;;;20.96;41.80
77587;BME280;66744;49.716;17.158;2023-06-14T15:59:26;98964.16;;;21.02;42.14
77587;BME280;66744;49.716;17.158;2023-06-14T16:02:29;98972.53;;;21.08;43.65
77587;BME280;66744;49.716;17.158;2023-06-14T16:05:35;98970.28;;;21.12;42.32
77587;BME280;66744;49.716;17.158;2023-06-14T16:08:36;98975.84;;;21.06;42.70
77587;BME280;66744;49.716;17.158;2023-06-14T16:11:41;98969.00;;;20.90;43.31
77587;BME280;66744;49.716;17.158;2023-06-14T16:14:45;98980.13;;;20.79;43.19
77587;BME280;66744;49.716;17.158;2023-06-14T16:17:49;98983.16;;;20.70;43.64
77587;BME280;66744;49.716;17.158;2023-06-14T16:20:54;98981.13;;;20.65;44.70
77587;BME280;66744;49.716;17.158;2023-06-14T16:24:05;98991.03;;;20.72;45.17
77587;BME280;66744;49.716;17.158;2023-06-14T16:27:10;98982.66;;;20.77;44.98
77587;BME280;66744;49.716;17.158;2023-06-14T16:30:21;98989.78;;;20.78;44.09
77587;BME280;66744;49.716;17.158;2023-06-14T16:33:59;98977.84;;;20.78;44.28
77587;BME280;66744;49.716;17.158;2023-06-14T16:37:04;98981.91;;;20.77;44.58
77587;BME280;66744;49.716;17.158;2023-06-14T16:40:07;98985.19;;;20.70;44.58
77587;BME280;66744;49.716;17.158;2023-06-14T16:43:11;98990.75;;;20.70;43.71
77587;BME280;66744;49.716;17.158;2023-06-14T16:46:14;98979.88;;;20.66;43.38
77587;BME280;66744;49.716;17.158;2023-06-14T16:49:20;98991.03;;;20.61;41.69
77587;BME280;66744;49.716;17.158;2023-06-14T16:52:35;98996.09;;;20.62;42.93
77587;BME280;66744;49.716;17.158;2023-06-14T16:56:03;98994.59;;;20.67;44.07
77587;BME280;66744;49.716;17.158;2023-06-14T16:59:08;98989.25;;;20.74;44.48
77587;BME280;66744;49.716;17.158;2023-06-14T17:02:17;98999.91;;;20.76;44.92
77587;BME280;66744;49.716;17.158;2023-06-14T17:05:20;98995.84;;;20.71;45.38
77587;BME280;66744;49.716;17.158;2023-06-14T17:08:38;98987.47;;;20.60;45.41